臺北終端管制區 - 桃園南區雷達席

METAR RCTP 140230Z 32006KT 280V340 9999 FEW015 BKN025 BKN050 32/28 Q1008 NOSIG RMK A2979(R)=

站台狀態:Offline
最後更新:2022-08-14 10:30:01